PWSweather.com
Personal Weather Stations
Station Observations
TORPERJOSANG
Carretera De Villel SN , MochalesES 19332

Carretera De Villel SN MochalesES 19332

Lat: 41.09957, Lon: -2.012569

Elevation: 3215

Station Type: PSW-20

http://www.torresp.com

High Low Average
Temperature 69.4°F20.8°C 51.1°F10.6°C 59.5°F15.3°C
Dew Point 58.5°F14.7°C 45.8°F7.7°C 52.9°F11.6°C
Winds 16.1 mph 25.9 kmh Calm Calm 2.0 mph SSE3.2 kmh SSE
Wind Gusts 24.2 mph38.9 kmh -- 4.0 mph6.4 kmh
Humidity 99% 62% 80%
Pressure 30.24 in1024.0 mb 30.12 in1020.0 mb -
Precipitation 0.48 in12.2 mm - -
Hour Temp Dew Point Humidity Winds Wind Gusts Pressure Precip Precip Rate Daily Precip Total
12:00 AM 57.9°F14.4°C 50.0°F10.0°C 75% 1.2 mph WNW1.9 kmh WNW 2.3 mph3.7 kmh 30.24 in1024.0 mb - 0.00 in0.0 mm 0.00 in0.0 mm
12:10 AM 57.6°F14.2°C 50.0°F10.0°C 76% 3.5 mph E5.6 kmh E 3.5 mph5.6 kmh 30.24 in1024.0 mb - 0.00 in0.0 mm 0.00 in0.0 mm
12:15 AM 57.6°F14.2°C 50.0°F10.0°C 76% 3.5 mph E5.6 kmh E 4.6 mph7.4 kmh 30.24 in1024.0 mb - 0.00 in0.0 mm 0.00 in0.0 mm
12:20 AM 57.6°F14.2°C 50.4°F10.2°C 77% 3.5 mph E5.6 kmh E 3.5 mph5.6 kmh 30.24 in1024.0 mb - 0.00 in0.0 mm 0.00 in0.0 mm
12:25 AM 57.9°F14.4°C 50.8°F10.4°C 77% 3.5 mph E5.6 kmh E 5.8 mph9.3 kmh 30.24 in1024.0 mb - 0.00 in0.0 mm 0.00 in0.0 mm
12:30 AM 59.0°F15.0°C 50.7°F10.4°C 74% 3.5 mph E5.6 kmh E 8.1 mph13.0 kmh 30.24 in1024.0 mb - 0.00 in0.0 mm 0.00 in0.0 mm
12:35 AM 59.5°F15.3°C 50.9°F10.5°C 73% 3.5 mph ENE5.6 kmh ENE 4.6 mph7.4 kmh 30.24 in1024.0 mb - 0.00 in0.0 mm 0.00 in0.0 mm
12:40 AM 59.7°F15.4°C 50.7°F10.4°C 72% 3.5 mph ENE5.6 kmh ENE 4.6 mph7.4 kmh 30.24 in1024.0 mb - 0.00 in0.0 mm 0.00 in0.0 mm
12:45 AM 59.9°F15.5°C 50.1°F10.1°C 70% 4.6 mph E7.4 kmh E 6.9 mph11.1 kmh 30.24 in1024.0 mb - 0.00 in0.0 mm 0.00 in0.0 mm
12:50 AM 60.2°F15.7°C 49.6°F9.8°C 68% 4.6 mph ENE7.4 kmh ENE 6.9 mph11.1 kmh 30.24 in1024.0 mb - 0.00 in0.0 mm 0.00 in0.0 mm
12:55 AM 60.6°F15.9°C 49.6°F9.8°C 67% 5.8 mph ENE9.3 kmh ENE 8.1 mph13.0 kmh 30.24 in1024.0 mb - 0.00 in0.0 mm 0.00 in0.0 mm
01:00 AM 60.8°F16.0°C 49.0°F9.4°C 65% 5.8 mph ENE9.3 kmh ENE 6.9 mph11.1 kmh 30.24 in1024.0 mb - 0.00 in0.0 mm 0.00 in0.0 mm
01:10 AM 61.5°F16.4°C 49.2°F9.6°C 64% 2.3 mph E3.7 kmh E 4.6 mph7.4 kmh 30.21 in1023.0 mb - 0.00 in0.0 mm 0.00 in0.0 mm
01:15 AM 61.5°F16.4°C 49.2°F9.6°C 64% 1.2 mph E1.9 kmh E 3.5 mph5.6 kmh 30.21 in1023.0 mb - 0.00 in0.0 mm 0.00 in0.0 mm
01:20 AM 61.5°F16.4°C 49.2°F9.6°C 64% Calm Calm 1.2 mph1.9 kmh 30.21 in1023.0 mb - 0.00 in0.0 mm 0.00 in0.0 mm
01:25 AM 61.2°F16.2°C 48.9°F9.4°C 64% Calm Calm 1.2 mph1.9 kmh 30.21 in1023.0 mb - 0.00 in0.0 mm 0.00 in0.0 mm
01:30 AM 60.8°F16.0°C 49.0°F9.4°C 65% Calm Calm -- 30.21 in1023.0 mb - 0.00 in0.0 mm 0.00 in0.0 mm
01:35 AM 60.5°F15.8°C 49.0°F9.4°C 66% Calm Calm -- 30.21 in1023.0 mb - 0.00 in0.0 mm 0.00 in0.0 mm
01:40 AM 60.4°F15.8°C 49.0°F9.4°C 66% Calm Calm 1.2 mph1.9 kmh 30.21 in1023.0 mb - 0.00 in0.0 mm 0.00 in0.0 mm
01:45 AM 60.3°F15.7°C 49.3°F9.6°C 67% 1.2 mph W1.9 kmh W 2.3 mph3.7 kmh 30.21 in1023.0 mb - 0.00 in0.0 mm 0.00 in0.0 mm
01:50 AM 60.1°F15.6°C 49.5°F9.7°C 68% 1.2 mph W1.9 kmh W 2.3 mph3.7 kmh 30.21 in1023.0 mb - 0.00 in0.0 mm 0.00 in0.0 mm
01:55 AM 59.9°F15.5°C 49.7°F9.8°C 69% 1.2 mph W1.9 kmh W 2.3 mph3.7 kmh 30.21 in1023.0 mb - 0.00 in0.0 mm 0.00 in0.0 mm
02:00 AM 59.7°F15.4°C 49.9°F9.9°C 70% Calm Calm 1.2 mph1.9 kmh 30.21 in1023.0 mb - 0.00 in0.0 mm 0.00 in0.0 mm
02:10 AM 59.5°F15.3°C 50.1°F10.1°C 71% Calm Calm -- 30.21 in1023.0 mb - 0.00 in0.0 mm 0.00 in0.0 mm
02:15 AM 59.4°F15.2°C 50.0°F10.0°C 71% Calm Calm -- 30.21 in1023.0 mb - 0.00 in0.0 mm 0.00 in0.0 mm
02:20 AM 59.5°F15.3°C 50.1°F10.1°C 71% 1.2 mph E1.9 kmh E 2.3 mph3.7 kmh 30.21 in1023.0 mb - 0.00 in0.0 mm 0.00 in0.0 mm
02:25 AM 59.7°F15.4°C 49.9°F9.9°C 70% Calm Calm 1.2 mph1.9 kmh 30.21 in1023.0 mb - 0.00 in0.0 mm 0.00 in0.0 mm
02:30 AM 59.9°F15.5°C 50.1°F10.1°C 70% 2.3 mph ENE3.7 kmh ENE 3.5 mph5.6 kmh 30.21 in1023.0 mb - 0.00 in0.0 mm 0.00 in0.0 mm
02:35 AM 59.9°F15.5°C 49.7°F9.8°C 69% Calm Calm 1.2 mph1.9 kmh 30.21 in1023.0 mb - 0.00 in0.0 mm 0.00 in0.0 mm
02:40 AM 59.9°F15.5°C 49.7°F9.8°C 69% 1.2 mph E1.9 kmh E 2.3 mph3.7 kmh 30.21 in1023.0 mb - 0.00 in0.0 mm 0.00 in0.0 mm
02:45 AM 59.9°F15.5°C 49.7°F9.8°C 69% 1.2 mph E1.9 kmh E 2.3 mph3.7 kmh 30.21 in1023.0 mb - 0.00 in0.0 mm 0.00 in0.0 mm
02:50 AM 59.9°F15.5°C 50.1°F10.1°C 70% 1.2 mph E1.9 kmh E 1.2 mph1.9 kmh 30.21 in1023.0 mb - 0.00 in0.0 mm 0.00 in0.0 mm
02:55 AM 59.7°F15.4°C 49.9°F9.9°C 70% 1.2 mph E1.9 kmh E 2.3 mph3.7 kmh 30.21 in1023.0 mb - 0.00 in0.0 mm 0.00 in0.0 mm
03:00 AM 59.7°F15.4°C 49.9°F9.9°C 70% 1.2 mph ENE1.9 kmh ENE 3.5 mph5.6 kmh 30.21 in1023.0 mb - 0.00 in0.0 mm 0.00 in0.0 mm
03:10 AM 59.9°F15.5°C 49.3°F9.6°C 68% 1.2 mph E1.9 kmh E 2.3 mph3.7 kmh 30.21 in1023.0 mb - 0.00 in0.0 mm 0.00 in0.0 mm
03:15 AM 60.1°F15.6°C 49.5°F9.7°C 68% 1.2 mph S1.9 kmh S 2.3 mph3.7 kmh 30.21 in1023.0 mb - 0.00 in0.0 mm 0.00 in0.0 mm
03:20 AM 60.1°F15.6°C 49.5°F9.7°C 68% Calm Calm 1.2 mph1.9 kmh 30.21 in1023.0 mb - 0.00 in0.0 mm 0.00 in0.0 mm
03:25 AM 60.1°F15.6°C 49.5°F9.7°C 68% 1.2 mph W1.9 kmh W 2.3 mph3.7 kmh 30.21 in1023.0 mb - 0.00 in0.0 mm 0.00 in0.0 mm
03:30 AM 59.9°F15.5°C 49.3°F9.6°C 68% Calm Calm 1.2 mph1.9 kmh 30.21 in1023.0 mb - 0.00 in0.0 mm 0.00 in0.0 mm
03:35 AM 59.9°F15.5°C 49.3°F9.6°C 68% 1.2 mph E1.9 kmh E 1.2 mph1.9 kmh 30.21 in1023.0 mb - 0.00 in0.0 mm 0.00 in0.0 mm
03:40 AM 60.1°F15.6°C 49.5°F9.7°C 68% 1.2 mph ENE1.9 kmh ENE 2.3 mph3.7 kmh 30.21 in1023.0 mb - 0.00 in0.0 mm 0.00 in0.0 mm
03:45 AM 60.3°F15.7°C 48.9°F9.4°C 66% 1.2 mph ENE1.9 kmh ENE 2.3 mph3.7 kmh 30.21 in1023.0 mb - 0.00 in0.0 mm 0.00 in0.0 mm
03:50 AM 60.4°F15.8°C 49.0°F9.4°C 66% 1.2 mph E1.9 kmh E 3.5 mph5.6 kmh 30.21 in1023.0 mb - 0.00 in0.0 mm 0.00 in0.0 mm
03:55 AM 60.4°F15.8°C 49.0°F9.4°C 66% Calm Calm 1.2 mph1.9 kmh 30.21 in1023.0 mb - 0.00 in0.0 mm 0.00 in0.0 mm
04:00 AM 60.4°F15.8°C 48.6°F9.2°C 65% Calm Calm 1.2 mph1.9 kmh 30.21 in1023.0 mb - 0.00 in0.0 mm 0.00 in0.0 mm
04:10 AM 60.3°F15.7°C 49.3°F9.6°C 67% 1.2 mph NW1.9 kmh NW 1.2 mph1.9 kmh 30.21 in1023.0 mb - 0.00 in0.0 mm 0.00 in0.0 mm
04:15 AM 60.1°F15.6°C 49.1°F9.5°C 67% Calm Calm 1.2 mph1.9 kmh 30.21 in1023.0 mb - 0.00 in0.0 mm 0.00 in0.0 mm
04:20 AM 59.9°F15.5°C 49.3°F9.6°C 68% Calm Calm 1.2 mph1.9 kmh 30.21 in1023.0 mb - 0.00 in0.0 mm 0.00 in0.0 mm
04:25 AM 59.7°F15.4°C 49.1°F9.5°C 68% Calm Calm 1.2 mph1.9 kmh 30.21 in1023.0 mb - 0.00 in0.0 mm 0.00 in0.0 mm
04:30 AM 59.5°F15.3°C 49.4°F9.7°C 69% 1.2 mph E1.9 kmh E 2.3 mph3.7 kmh 30.21 in1023.0 mb - 0.00 in0.0 mm 0.00 in0.0 mm
04:35 AM 59.2°F15.1°C 48.6°F9.2°C 68% Calm Calm 1.2 mph1.9 kmh 30.21 in1023.0 mb - 0.00 in0.0 mm 0.00 in0.0 mm
04:40 AM 59.0°F15.0°C 48.8°F9.3°C 69% Calm Calm 1.2 mph1.9 kmh 30.21 in1023.0 mb - 0.00 in0.0 mm 0.00 in0.0 mm
04:45 AM 58.6°F14.8°C 48.9°F9.4°C 70% Calm Calm 1.2 mph1.9 kmh 30.21 in1023.0 mb - 0.00 in0.0 mm 0.00 in0.0 mm
04:50 AM 58.3°F14.6°C 48.5°F9.2°C 70% 1.2 mph E1.9 kmh E 2.3 mph3.7 kmh 30.21 in1023.0 mb - 0.00 in0.0 mm 0.00 in0.0 mm
04:55 AM 57.9°F14.4°C 48.2°F9.0°C 70% Calm Calm 1.2 mph1.9 kmh 30.21 in1023.0 mb - 0.00 in0.0 mm 0.00 in0.0 mm
05:00 AM 57.9°F14.4°C 48.2°F9.0°C 70% Calm Calm 1.2 mph1.9 kmh 30.21 in1023.0 mb - 0.00 in0.0 mm 0.00 in0.0 mm
05:10 AM 57.6°F14.2°C 47.9°F8.8°C 70% 1.2 mph NE1.9 kmh NE 3.5 mph5.6 kmh 30.21 in1023.0 mb - 0.00 in0.0 mm 0.00 in0.0 mm
05:15 AM 57.2°F14.0°C 47.1°F8.4°C 69% 1.2 mph ENE1.9 kmh ENE 2.3 mph3.7 kmh 30.21 in1023.0 mb - 0.00 in0.0 mm 0.00 in0.0 mm
05:20 AM 57.0°F13.9°C 47.3°F8.5°C 70% 1.2 mph E1.9 kmh E 1.2 mph1.9 kmh 30.21 in1023.0 mb - 0.00 in0.0 mm 0.00 in0.0 mm
05:25 AM 56.8°F13.8°C 47.2°F8.4°C 70% 1.2 mph S1.9 kmh S 1.2 mph1.9 kmh 30.21 in1023.0 mb - 0.00 in0.0 mm 0.00 in0.0 mm
05:30 AM 56.3°F13.5°C 47.0°F8.3°C 71% 1.2 mph ENE1.9 kmh ENE 1.2 mph1.9 kmh 30.21 in1023.0 mb - 0.00 in0.0 mm 0.00 in0.0 mm
05:35 AM 55.9°F13.3°C 46.7°F8.2°C 71% 1.2 mph S1.9 kmh S 1.2 mph1.9 kmh 30.21 in1023.0 mb - 0.00 in0.0 mm 0.00 in0.0 mm
05:40 AM 55.6°F13.1°C 46.7°F8.2°C 72% Calm Calm 1.2 mph1.9 kmh 30.21 in1023.0 mb - 0.00 in0.0 mm 0.00 in0.0 mm
05:45 AM 55.1°F12.8°C 46.6°F8.1°C 73% Calm Calm 1.2 mph1.9 kmh 30.21 in1023.0 mb - 0.00 in0.0 mm 0.00 in0.0 mm
05:50 AM 54.7°F12.6°C 46.2°F7.9°C 73% Calm Calm -- 30.21 in1023.0 mb - 0.00 in0.0 mm 0.00 in0.0 mm
05:55 AM 54.3°F12.4°C 46.2°F7.9°C 74% Calm Calm -- 30.21 in1023.0 mb - 0.00 in0.0 mm 0.00 in0.0 mm
06:00 AM 54.0°F12.2°C 46.2°F7.9°C 75% Calm Calm 1.2 mph1.9 kmh 30.21 in1023.0 mb - 0.00 in0.0 mm 0.00 in0.0 mm
06:10 AM 53.3°F11.8°C 46.6°F8.1°C 78% Calm Calm -- 30.18 in1022.0 mb - 0.00 in0.0 mm 0.00 in0.0 mm
06:15 AM 53.1°F11.7°C 46.4°F8.0°C 78% Calm Calm -- 30.18 in1022.0 mb - 0.00 in0.0 mm 0.00 in0.0 mm
06:20 AM 52.7°F11.5°C 46.4°F8.0°C 79% Calm Calm -- 30.18 in1022.0 mb - 0.00 in0.0 mm 0.00 in0.0 mm
06:25 AM 52.5°F11.4°C 46.2°F7.9°C 79% Calm Calm -- 30.18 in1022.0 mb - 0.00 in0.0 mm 0.00 in0.0 mm
06:30 AM 52.2°F11.2°C 46.2°F7.9°C 80% Calm Calm -- 30.18 in1022.0 mb - 0.00 in0.0 mm 0.00 in0.0 mm
06:35 AM 51.8°F11.0°C 45.8°F7.7°C 80% Calm Calm -- 30.18 in1022.0 mb - 0.00 in0.0 mm 0.00 in0.0 mm
06:40 AM 51.6°F10.9°C 46.3°F7.9°C 82% 1.2 mph W1.9 kmh W 3.5 mph5.6 kmh 30.18 in1022.0 mb - 0.00 in0.0 mm 0.00 in0.0 mm
06:45 AM 51.4°F10.8°C 46.4°F8.0°C 83% 1.2 mph NE1.9 kmh NE 1.2 mph1.9 kmh 30.18 in1022.0 mb - 0.00 in0.0 mm 0.00 in0.0 mm
06:50 AM 51.1°F10.6°C 46.1°F7.8°C 83% Calm Calm -- 30.18 in1022.0 mb - 0.00 in0.0 mm 0.00 in0.0 mm
06:55 AM 51.1°F10.6°C 46.1°F7.8°C 83% Calm Calm 1.2 mph1.9 kmh 30.18 in1022.0 mb - 0.00 in0.0 mm 0.00 in0.0 mm
07:00 AM 51.3°F10.7°C 46.6°F8.1°C 84% Calm Calm 1.2 mph1.9 kmh 30.18 in1022.0 mb - 0.00 in0.0 mm 0.00 in0.0 mm
07:10 AM 51.4°F10.8°C 46.8°F8.2°C 84% 1.2 mph W1.9 kmh W 3.5 mph5.6 kmh 30.21 in1023.0 mb - 0.00 in0.0 mm 0.00 in0.0 mm
07:15 AM 51.6°F10.9°C 46.9°F8.3°C 84% Calm Calm 2.3 mph3.7 kmh 30.21 in1023.0 mb - 0.00 in0.0 mm 0.00 in0.0 mm
07:20 AM 51.8°F11.0°C 46.8°F8.2°C 83% 1.2 mph NW1.9 kmh NW 1.2 mph1.9 kmh 30.21 in1023.0 mb - 0.00 in0.0 mm 0.00 in0.0 mm
07:25 AM 52.0°F11.1°C 47.3°F8.5°C 84% Calm Calm -- 30.21 in1023.0 mb - 0.00 in0.0 mm 0.00 in0.0 mm
07:30 AM 52.3°F11.3°C 47.6°F8.7°C 84% Calm Calm -- 30.21 in1023.0 mb - 0.00 in0.0 mm 0.00 in0.0 mm
07:35 AM 52.3°F11.3°C 47.6°F8.7°C 84% Calm Calm 1.2 mph1.9 kmh 30.21 in1023.0 mb - 0.00 in0.0 mm 0.00 in0.0 mm
07:40 AM 52.5°F11.4°C 47.8°F8.8°C 84% Calm Calm 1.2 mph1.9 kmh 30.21 in1023.0 mb - 0.00 in0.0 mm 0.00 in0.0 mm
07:45 AM 52.7°F11.5°C 48.0°F8.9°C 84% 1.2 mph E1.9 kmh E 1.2 mph1.9 kmh 30.21 in1023.0 mb - 0.00 in0.0 mm 0.00 in0.0 mm
07:50 AM 53.1°F11.7°C 48.4°F9.1°C 84% Calm Calm 1.2 mph1.9 kmh 30.21 in1023.0 mb - 0.00 in0.0 mm 0.00 in0.0 mm
07:55 AM 53.2°F11.8°C 48.5°F9.2°C 84% Calm Calm 1.2 mph1.9 kmh 30.21 in1023.0 mb - 0.00 in0.0 mm 0.00 in0.0 mm
08:00 AM 53.4°F11.9°C 48.7°F9.3°C 84% 1.2 mph W1.9 kmh W 1.2 mph1.9 kmh 30.21 in1023.0 mb - 0.00 in0.0 mm 0.00 in0.0 mm
08:10 AM 53.8°F12.1°C 49.1°F9.5°C 84% 1.2 mph S1.9 kmh S 2.3 mph3.7 kmh 30.21 in1023.0 mb - 0.00 in0.0 mm 0.00 in0.0 mm
08:15 AM 54.1°F12.3°C 49.4°F9.7°C 84% Calm Calm -- 30.21 in1023.0 mb - 0.00 in0.0 mm 0.00 in0.0 mm
08:20 AM 54.3°F12.4°C 49.6°F9.8°C 84% Calm Calm 1.2 mph1.9 kmh 30.21 in1023.0 mb - 0.00 in0.0 mm 0.00 in0.0 mm
08:25 AM 54.7°F12.6°C 49.6°F9.8°C 83% 1.2 mph S1.9 kmh S 1.2 mph1.9 kmh 30.21 in1023.0 mb - 0.00 in0.0 mm 0.00 in0.0 mm
08:30 AM 55.0°F12.8°C 50.0°F10.0°C 83% Calm Calm 1.2 mph1.9 kmh 30.21 in1023.0 mb - 0.00 in0.0 mm 0.00 in0.0 mm
08:35 AM 55.4°F13.0°C 50.6°F10.3°C 84% 1.2 mph W1.9 kmh W 2.3 mph3.7 kmh 30.21 in1023.0 mb - 0.00 in0.0 mm 0.00 in0.0 mm
08:40 AM 55.8°F13.2°C 51.0°F10.6°C 84% 3.5 mph W5.6 kmh W 4.6 mph7.4 kmh 30.21 in1023.0 mb - 0.00 in0.0 mm 0.00 in0.0 mm
08:45 AM 56.1°F13.4°C 50.7°F10.4°C 82% 3.5 mph W5.6 kmh W 5.8 mph9.3 kmh 30.21 in1023.0 mb - 0.00 in0.0 mm 0.00 in0.0 mm
08:50 AM 56.5°F13.6°C 50.7°F10.4°C 81% 1.2 mph WSW1.9 kmh WSW 3.5 mph5.6 kmh 30.21 in1023.0 mb - 0.00 in0.0 mm 0.00 in0.0 mm
08:55 AM 56.8°F13.8°C 51.1°F10.6°C 81% Calm Calm -- 30.21 in1023.0 mb - 0.00 in0.0 mm 0.00 in0.0 mm
09:00 AM 57.0°F13.9°C 51.2°F10.7°C 81% 1.2 mph W1.9 kmh W 1.2 mph1.9 kmh 30.21 in1023.0 mb - 0.00 in0.0 mm 0.00 in0.0 mm
09:10 AM 57.6°F14.2°C 51.4°F10.8°C 80% Calm Calm 1.2 mph1.9 kmh 30.21 in1023.0 mb - 0.00 in0.0 mm 0.00 in0.0 mm
09:15 AM 57.9°F14.4°C 51.4°F10.8°C 79% Calm Calm -- 30.21 in1023.0 mb - 0.00 in0.0 mm 0.00 in0.0 mm
09:20 AM 58.1°F14.5°C 51.3°F10.7°C 78% 1.2 mph E1.9 kmh E 1.2 mph1.9 kmh 30.21 in1023.0 mb - 0.00 in0.0 mm 0.00 in0.0 mm
09:25 AM 58.5°F14.7°C 51.6°F10.9°C 78% 1.2 mph S1.9 kmh S 1.2 mph1.9 kmh 30.21 in1023.0 mb - 0.00 in0.0 mm 0.00 in0.0 mm
09:30 AM 58.6°F14.8°C 51.8°F11.0°C 78% Calm Calm -- 30.21 in1023.0 mb - 0.00 in0.0 mm 0.00 in0.0 mm
09:35 AM 58.6°F14.8°C 51.4°F10.8°C 77% Calm Calm -- 30.21 in1023.0 mb - 0.00 in0.0 mm 0.00 in0.0 mm
09:40 AM 58.8°F14.9°C 51.6°F10.9°C 77% 1.2 mph NW1.9 kmh NW 3.5 mph5.6 kmh 30.21 in1023.0 mb - 0.00 in0.0 mm 0.00 in0.0 mm
09:45 AM 58.6°F14.8°C 51.4°F10.8°C 77% 2.3 mph W3.7 kmh W 3.5 mph5.6 kmh 30.21 in1023.0 mb - 0.00 in0.0 mm 0.00 in0.0 mm
09:50 AM 58.5°F14.7°C 51.3°F10.7°C 77% 1.2 mph E1.9 kmh E 1.2 mph1.9 kmh 30.21 in1023.0 mb - 0.00 in0.0 mm 0.00 in0.0 mm
09:55 AM 58.3°F14.6°C 51.1°F10.6°C 77% 1.2 mph E1.9 kmh E 1.2 mph1.9 kmh 30.21 in1023.0 mb - 0.00 in0.0 mm 0.00 in0.0 mm
10:00 AM 58.3°F14.6°C 51.1°F10.6°C 77% 1.2 mph NW1.9 kmh NW 1.2 mph1.9 kmh 30.21 in1023.0 mb - 0.00 in0.0 mm 0.00 in0.0 mm
10:10 AM 58.1°F14.5°C 51.3°F10.7°C 78% Calm Calm 1.2 mph1.9 kmh 30.21 in1023.0 mb - 0.00 in0.0 mm 0.00 in0.0 mm
10:15 AM 57.9°F14.4°C 51.4°F10.8°C 79% 1.2 mph E1.9 kmh E 1.2 mph1.9 kmh 30.21 in1023.0 mb - 0.00 in0.0 mm 0.00 in0.0 mm
10:20 AM 57.7°F14.3°C 51.6°F10.9°C 80% 1.2 mph W1.9 kmh W 3.5 mph5.6 kmh 30.21 in1023.0 mb - 0.00 in0.0 mm 0.00 in0.0 mm
10:25 AM 57.4°F14.1°C 51.6°F10.9°C 81% 3.5 mph E5.6 kmh E 4.6 mph7.4 kmh 30.21 in1023.0 mb - 0.00 in0.0 mm 0.00 in0.0 mm
10:30 AM 57.2°F14.0°C 51.8°F11.0°C 82% 3.5 mph ENE5.6 kmh ENE 5.8 mph9.3 kmh 30.21 in1023.0 mb - 0.00 in0.0 mm 0.00 in0.0 mm
10:35 AM 57.0°F13.9°C 52.6°F11.4°C 85% 1.2 mph N1.9 kmh N 3.5 mph5.6 kmh 30.21 in1023.0 mb - 0.01 in0.3 mm 0.01 in0.3 mm
10:40 AM 57.0°F13.9°C 52.9°F11.6°C 86% 1.2 mph SW1.9 kmh SW 3.5 mph5.6 kmh 30.21 in1023.0 mb - 0.01 in0.3 mm 0.01 in0.3 mm
10:45 AM 57.4°F14.1°C 52.9°F11.6°C 85% Calm Calm 1.2 mph1.9 kmh 30.21 in1023.0 mb - 0.01 in0.3 mm 0.01 in0.3 mm
10:50 AM 57.7°F14.3°C 53.6°F12.0°C 86% Calm Calm 1.2 mph1.9 kmh 30.21 in1023.0 mb - 0.01 in0.3 mm 0.01 in0.3 mm
10:55 AM 57.9°F14.4°C 53.8°F12.1°C 86% Calm Calm 1.2 mph1.9 kmh 30.21 in1023.0 mb - 0.01 in0.3 mm 0.01 in0.3 mm
11:00 AM 57.9°F14.4°C 53.8°F12.1°C 86% 1.2 mph NW1.9 kmh NW 1.2 mph1.9 kmh 30.21 in1023.0 mb - 0.01 in0.3 mm 0.01 in0.3 mm
11:10 AM 57.7°F14.3°C 53.9°F12.2°C 87% 3.5 mph NW5.6 kmh NW 6.9 mph11.1 kmh 30.21 in1023.0 mb - 0.01 in0.3 mm 0.01 in0.3 mm
11:15 AM 57.7°F14.3°C 53.9°F12.2°C 87% 1.2 mph S1.9 kmh S 3.5 mph5.6 kmh 30.21 in1023.0 mb - 0.01 in0.3 mm 0.01 in0.3 mm
11:20 AM 57.7°F14.3°C 53.9°F12.2°C 87% 3.5 mph WNW5.6 kmh WNW 3.5 mph5.6 kmh 30.21 in1023.0 mb - 0.01 in0.3 mm 0.01 in0.3 mm
11:25 AM 57.9°F14.4°C 54.1°F12.3°C 87% 2.3 mph NW3.7 kmh NW 3.5 mph5.6 kmh 30.21 in1023.0 mb - 0.01 in0.3 mm 0.01 in0.3 mm
11:30 AM 57.9°F14.4°C 54.1°F12.3°C 87% 3.5 mph NW5.6 kmh NW 4.6 mph7.4 kmh 30.21 in1023.0 mb - 0.01 in0.3 mm 0.01 in0.3 mm
11:35 AM 57.7°F14.3°C 53.9°F12.2°C 87% 1.2 mph WSW1.9 kmh WSW 2.3 mph3.7 kmh 30.21 in1023.0 mb - 0.02 in0.5 mm 0.04 in1.0 mm
11:40 AM 57.7°F14.3°C 54.2°F12.3°C 88% 5.8 mph W9.3 kmh W 8.1 mph13.0 kmh 30.21 in1023.0 mb - 0.02 in0.5 mm 0.04 in1.0 mm
11:45 AM 57.7°F14.3°C 54.5°F12.5°C 89% 3.5 mph W5.6 kmh W 6.9 mph11.1 kmh 30.21 in1023.0 mb - 0.04 in1.0 mm 0.05 in1.3 mm
11:50 AM 57.6°F14.2°C 54.6°F12.6°C 90% 1.2 mph W1.9 kmh W 3.5 mph5.6 kmh 30.21 in1023.0 mb - 0.04 in1.0 mm 0.05 in1.3 mm
11:55 AM 57.6°F14.2°C 54.6°F12.6°C 90% Calm Calm 1.2 mph1.9 kmh 30.21 in1023.0 mb - 0.04 in1.0 mm 0.05 in1.3 mm
12:00 PM 57.7°F14.3°C 55.1°F12.8°C 91% 1.2 mph SE1.9 kmh SE 1.2 mph1.9 kmh 30.21 in1023.0 mb - 0.04 in1.0 mm 0.05 in1.3 mm
12:10 PM 58.3°F14.6°C 56.0°F13.3°C 92% 1.2 mph W1.9 kmh W 1.2 mph1.9 kmh 30.21 in1023.0 mb - 0.04 in1.0 mm 0.05 in1.3 mm
12:15 PM 58.6°F14.8°C 56.3°F13.5°C 92% 2.3 mph NW3.7 kmh NW 3.5 mph5.6 kmh 30.21 in1023.0 mb - 0.04 in1.0 mm 0.05 in1.3 mm
12:20 PM 59.0°F15.0°C 56.7°F13.7°C 92% 1.2 mph W1.9 kmh W 3.5 mph5.6 kmh 30.21 in1023.0 mb - 0.04 in1.0 mm 0.05 in1.3 mm
12:25 PM 59.3°F15.2°C 57.0°F13.9°C 92% 2.3 mph W3.7 kmh W 3.5 mph5.6 kmh 30.21 in1023.0 mb - 0.04 in1.0 mm 0.05 in1.3 mm
12:30 PM 59.9°F15.5°C 57.6°F14.2°C 92% 1.2 mph NW1.9 kmh NW 2.3 mph3.7 kmh 30.21 in1023.0 mb - 0.04 in1.0 mm 0.05 in1.3 mm
12:35 PM 60.4°F15.8°C 57.8°F14.3°C 91% Calm Calm -- 30.21 in1023.0 mb - 0.01 in0.3 mm 0.05 in1.3 mm
12:40 PM 61.3°F16.3°C 58.0°F14.4°C 89% 1.2 mph E1.9 kmh E 2.3 mph3.7 kmh 30.21 in1023.0 mb - 0.01 in0.3 mm 0.05 in1.3 mm
12:45 PM 61.9°F16.6°C 58.3°F14.6°C 88% 1.2 mph SE1.9 kmh SE 2.3 mph3.7 kmh 30.21 in1023.0 mb - 0.00 in0.0 mm 0.05 in1.3 mm
12:50 PM 62.4°F16.9°C 58.5°F14.7°C 87% 3.5 mph E5.6 kmh E 3.5 mph5.6 kmh 30.21 in1023.0 mb - 0.00 in0.0 mm 0.05 in1.3 mm
12:55 PM 62.9°F17.2°C 58.0°F14.4°C 84% Calm Calm 2.3 mph3.7 kmh 30.21 in1023.0 mb - 0.00 in0.0 mm 0.05 in1.3 mm
01:00 PM 63.5°F17.5°C 57.9°F14.4°C 82% 4.6 mph NE7.4 kmh NE 6.9 mph11.1 kmh 30.21 in1023.0 mb - 0.00 in0.0 mm 0.05 in1.3 mm
01:10 PM 64.0°F17.8°C 54.4°F12.4°C 71% 6.9 mph ENE11.1 kmh ENE 9.2 mph14.8 kmh 30.18 in1022.0 mb - 0.00 in0.0 mm 0.05 in1.3 mm
01:15 PM 64.2°F17.9°C 53.4°F11.9°C 68% 6.9 mph E11.1 kmh E 9.2 mph14.8 kmh 30.18 in1022.0 mb - 0.00 in0.0 mm 0.05 in1.3 mm
01:20 PM 64.6°F18.1°C 53.0°F11.7°C 66% 6.9 mph E11.1 kmh E 10.4 mph16.7 kmh 30.18 in1022.0 mb - 0.00 in0.0 mm 0.05 in1.3 mm
01:25 PM 64.9°F18.3°C 52.9°F11.6°C 65% 8.1 mph E13.0 kmh E 12.7 mph20.4 kmh 30.18 in1022.0 mb - 0.00 in0.0 mm 0.05 in1.3 mm
01:30 PM 65.5°F18.6°C 52.5°F11.4°C 63% 8.1 mph NNE13.0 kmh NNE 10.4 mph16.7 kmh 30.18 in1022.0 mb - 0.00 in0.0 mm 0.05 in1.3 mm
01:35 PM 65.8°F18.8°C 53.3°F11.8°C 64% 5.8 mph NE9.3 kmh NE 10.4 mph16.7 kmh 30.18 in1022.0 mb - 0.00 in0.0 mm 0.05 in1.3 mm
01:40 PM 66.7°F19.3°C 54.2°F12.3°C 64% 9.2 mph NE14.8 kmh NE 10.4 mph16.7 kmh 30.18 in1022.0 mb - 0.00 in0.0 mm 0.05 in1.3 mm
01:45 PM 67.3°F19.6°C 54.3°F12.4°C 63% 8.1 mph E13.0 kmh E 11.5 mph18.5 kmh 30.18 in1022.0 mb - 0.00 in0.0 mm 0.05 in1.3 mm
01:50 PM 67.5°F19.7°C 54.0°F12.2°C 62% 8.1 mph ENE13.0 kmh ENE 11.5 mph18.5 kmh 30.18 in1022.0 mb - 0.00 in0.0 mm 0.05 in1.3 mm
01:55 PM 67.1°F19.5°C 53.7°F12.1°C 62% 8.1 mph NE13.0 kmh NE 10.4 mph16.7 kmh 30.18 in1022.0 mb - 0.00 in0.0 mm 0.05 in1.3 mm
02:00 PM 67.1°F19.5°C 54.1°F12.3°C 63% 6.9 mph E11.1 kmh E 9.2 mph14.8 kmh 30.18 in1022.0 mb - 0.00 in0.0 mm 0.05 in1.3 mm
02:10 PM 67.1°F19.5°C 53.7°F12.1°C 62% 5.8 mph E9.3 kmh E 8.1 mph13.0 kmh 30.15 in1021.0 mb - 0.00 in0.0 mm 0.05 in1.3 mm
02:15 PM 67.3°F19.6°C 54.7°F12.6°C 64% 4.6 mph SE7.4 kmh SE 6.9 mph11.1 kmh 30.15 in1021.0 mb - 0.00 in0.0 mm 0.05 in1.3 mm
02:20 PM 67.3°F19.6°C 54.7°F12.6°C 64% 5.8 mph ENE9.3 kmh ENE 8.1 mph13.0 kmh 30.15 in1021.0 mb - 0.00 in0.0 mm 0.05 in1.3 mm
02:25 PM 67.6°F19.8°C 55.0°F12.8°C 64% 6.9 mph ENE11.1 kmh ENE 10.4 mph16.7 kmh 30.15 in1021.0 mb - 0.00 in0.0 mm 0.05 in1.3 mm
02:30 PM 67.8°F19.9°C 55.2°F12.9°C 64% 5.8 mph NE9.3 kmh NE 8.1 mph13.0 kmh 30.15 in1021.0 mb - 0.00 in0.0 mm 0.05 in1.3 mm
02:35 PM 68.0°F20.0°C 54.9°F12.7°C 63% 6.9 mph ENE11.1 kmh ENE 10.4 mph16.7 kmh 30.15 in1021.0 mb - 0.00 in0.0 mm 0.05 in1.3 mm
02:40 PM 68.2°F20.1°C 55.1°F12.8°C 63% 5.8 mph E9.3 kmh E 9.2 mph14.8 kmh 30.15 in1021.0 mb - 0.00 in0.0 mm 0.05 in1.3 mm
02:45 PM 68.2°F20.1°C 55.1°F12.8°C 63% 5.8 mph E9.3 kmh E 6.9 mph11.1 kmh 30.15 in1021.0 mb - 0.00 in0.0 mm 0.05 in1.3 mm
02:50 PM 68.4°F20.2°C 55.3°F12.9°C 63% 8.1 mph ENE13.0 kmh ENE 10.4 mph16.7 kmh 30.15 in1021.0 mb - 0.00 in0.0 mm 0.05 in1.3 mm
02:55 PM 68.4°F20.2°C 55.3°F12.9°C 63% 8.1 mph E13.0 kmh E 11.5 mph18.5 kmh 30.15 in1021.0 mb - 0.00 in0.0 mm 0.05 in1.3 mm
03:00 PM 68.5°F20.3°C 55.4°F13.0°C 63% 8.1 mph E13.0 kmh E 11.5 mph18.5 kmh 30.15 in1021.0 mb - 0.00 in0.0 mm 0.05 in1.3 mm
03:10 PM 68.7°F20.4°C 55.6°F13.1°C 63% 6.9 mph E11.1 kmh E 9.2 mph14.8 kmh 30.15 in1021.0 mb - 0.00 in0.0 mm 0.05 in1.3 mm
03:15 PM 68.7°F20.4°C 55.6°F13.1°C 63% 5.8 mph E9.3 kmh E 11.5 mph18.5 kmh 30.15 in1021.0 mb - 0.00 in0.0 mm 0.05 in1.3 mm
03:20 PM 68.7°F20.4°C 55.6°F13.1°C 63% 6.9 mph E11.1 kmh E 8.1 mph13.0 kmh 30.15 in1021.0 mb - 0.00 in0.0 mm 0.05 in1.3 mm
03:25 PM 68.7°F20.4°C 55.6°F13.1°C 63% 3.5 mph NE5.6 kmh NE 5.8 mph9.3 kmh 30.15 in1021.0 mb - 0.00 in0.0 mm 0.05 in1.3 mm
03:30 PM 68.9°F20.5°C 55.8°F13.2°C 63% 5.8 mph E9.3 kmh E 8.1 mph13.0 kmh 30.15 in1021.0 mb - 0.00 in0.0 mm 0.05 in1.3 mm
03:35 PM 68.9°F20.5°C 55.8°F13.2°C 63% 5.8 mph E9.3 kmh E 9.2 mph14.8 kmh 30.15 in1021.0 mb - 0.00 in0.0 mm 0.05 in1.3 mm
03:40 PM 68.9°F20.5°C 55.8°F13.2°C 63% 5.8 mph NE9.3 kmh NE 8.1 mph13.0 kmh 30.15 in1021.0 mb - 0.00 in0.0 mm 0.05 in1.3 mm
03:45 PM 68.7°F20.4°C 55.6°F13.1°C 63% 3.5 mph ENE5.6 kmh ENE 6.9 mph11.1 kmh 30.15 in1021.0 mb - 0.00 in0.0 mm 0.05 in1.3 mm
03:50 PM 68.7°F20.4°C 56.0°F13.3°C 64% 5.8 mph E9.3 kmh E 9.2 mph14.8 kmh 30.15 in1021.0 mb - 0.00 in0.0 mm 0.05 in1.3 mm
03:55 PM 68.9°F20.5°C 56.2°F13.4°C 64% 6.9 mph E11.1 kmh E 10.4 mph16.7 kmh 30.15 in1021.0 mb - 0.00 in0.0 mm 0.05 in1.3 mm
04:00 PM 69.1°F20.6°C 56.0°F13.3°C 63% 6.9 mph ENE11.1 kmh ENE 9.2 mph14.8 kmh 30.15 in1021.0 mb - 0.00 in0.0 mm 0.05 in1.3 mm
04:10 PM 69.4°F20.8°C 56.7°F13.7°C 64% 9.2 mph NE14.8 kmh NE 12.7 mph20.4 kmh 30.15 in1021.0 mb - 0.00 in0.0 mm 0.05 in1.3 mm
04:15 PM 69.4°F20.8°C 56.3°F13.5°C 63% 5.8 mph E9.3 kmh E 10.4 mph16.7 kmh 30.15 in1021.0 mb - 0.00 in0.0 mm 0.05 in1.3 mm
04:20 PM 69.3°F20.7°C 56.1°F13.4°C 63% 9.2 mph SSE14.8 kmh SSE 13.8 mph22.2 kmh 30.15 in1021.0 mb - 0.00 in0.0 mm 0.05 in1.3 mm
04:25 PM 68.9°F20.5°C 55.8°F13.2°C 63% 10.4 mph NNE16.7 kmh NNE 12.7 mph20.4 kmh 30.15 in1021.0 mb - 0.00 in0.0 mm 0.05 in1.3 mm
04:30 PM 68.5°F20.3°C 55.4°F13.0°C 63% 8.1 mph SE13.0 kmh SE 12.7 mph20.4 kmh 30.15 in1021.0 mb - 0.00 in0.0 mm 0.05 in1.3 mm
04:35 PM 68.4°F20.2°C 55.3°F12.9°C 63% 9.2 mph ENE14.8 kmh ENE 15.0 mph24.1 kmh 30.15 in1021.0 mb - 0.00 in0.0 mm 0.05 in1.3 mm
04:40 PM 68.2°F20.1°C 55.1°F12.8°C 63% 8.1 mph ENE13.0 kmh ENE 12.7 mph20.4 kmh 30.15 in1021.0 mb - 0.00 in0.0 mm 0.05 in1.3 mm
04:45 PM 68.0°F20.0°C 54.9°F12.7°C 63% 8.1 mph NE13.0 kmh NE 9.2 mph14.8 kmh 30.15 in1021.0 mb - 0.00 in0.0 mm 0.05 in1.3 mm
04:50 PM 68.0°F20.0°C 54.9°F12.7°C 63% 5.8 mph E9.3 kmh E 12.7 mph20.4 kmh 30.15 in1021.0 mb - 0.00 in0.0 mm 0.05 in1.3 mm
04:55 PM 67.8°F19.9°C 55.6°F13.1°C 65% 5.8 mph E9.3 kmh E 9.2 mph14.8 kmh 30.15 in1021.0 mb - 0.00 in0.0 mm 0.05 in1.3 mm
05:15 PM 67.7°F19.8°C 55.0°F12.8°C 64% 8.1 mph E13.0 kmh E 12.7 mph20.4 kmh 30.15 in1021.0 mb - 0.00 in0.0 mm 0.05 in1.3 mm
05:20 PM 67.5°F19.7°C 55.3°F12.9°C 65% 8.1 mph E13.0 kmh E 10.4 mph16.7 kmh 30.15 in1021.0 mb - 0.00 in0.0 mm 0.05 in1.3 mm
05:25 PM 67.3°F19.6°C 55.1°F12.8°C 65% 9.2 mph NE14.8 kmh NE 12.7 mph20.4 kmh 30.15 in1021.0 mb - 0.00 in0.0 mm 0.05 in1.3 mm
05:30 PM 67.3°F19.6°C 55.1°F12.8°C 65% 5.8 mph N9.3 kmh N 10.4 mph16.7 kmh 30.15 in1021.0 mb - 0.00 in0.0 mm 0.05 in1.3 mm
05:35 PM 66.8°F19.3°C 55.9°F13.3°C 68% 16.1 mph SW25.9 kmh SW 24.2 mph38.9 kmh 30.15 in1021.0 mb - 0.00 in0.0 mm 0.05 in1.3 mm
05:40 PM 64.4°F18.0°C 56.3°F13.5°C 75% 11.5 mph SW18.5 kmh SW 19.6 mph31.5 kmh 30.15 in1021.0 mb - 0.09 in2.3 mm 0.14 in3.6 mm
05:45 PM 62.1°F16.7°C 55.2°F12.9°C 78% 4.6 mph ESE7.4 kmh ESE 5.8 mph9.3 kmh 30.15 in1021.0 mb - 0.12 in3.0 mm 0.17 in4.3 mm
05:50 PM 61.0°F16.1°C 54.8°F12.7°C 80% 2.3 mph W3.7 kmh W 3.5 mph5.6 kmh 30.15 in1021.0 mb - 0.13 in3.3 mm 0.18 in4.6 mm
05:55 PM 60.6°F15.9°C 55.4°F13.0°C 83% 2.3 mph WNW3.7 kmh WNW 4.6 mph7.4 kmh 30.15 in1021.0 mb - 0.13 in3.3 mm 0.18 in4.6 mm
06:00 PM 59.9°F15.5°C 55.1°F12.8°C 84% 1.2 mph W1.9 kmh W 4.6 mph7.4 kmh 30.15 in1021.0 mb - 0.14 in3.6 mm 0.19 in4.8 mm
06:10 PM 59.4°F15.2°C 54.8°F12.7°C 85% 4.6 mph NW7.4 kmh NW 5.8 mph9.3 kmh 30.12 in1020.0 mb - 0.15 in3.8 mm 0.20 in5.1 mm
06:15 PM 59.0°F15.0°C 54.8°F12.7°C 86% 1.2 mph S1.9 kmh S 2.3 mph3.7 kmh 30.12 in1020.0 mb - 0.19 in4.8 mm 0.24 in6.1 mm
06:20 PM 58.8°F14.9°C 55.3°F12.9°C 88% Calm Calm 3.5 mph5.6 kmh 30.12 in1020.0 mb - 0.33 in8.4 mm 0.38 in9.7 mm
06:25 PM 58.6°F14.8°C 55.4°F13.0°C 89% 3.5 mph NE5.6 kmh NE 5.8 mph9.3 kmh 30.12 in1020.0 mb - 0.37 in9.4 mm 0.41 in10.4 mm
06:30 PM 58.5°F14.7°C 55.5°F13.1°C 90% Calm Calm 2.3 mph3.7 kmh 30.12 in1020.0 mb - 0.39 in9.9 mm 0.44 in11.2 mm
06:35 PM 58.5°F14.7°C 55.8°F13.2°C 91% 2.3 mph ENE3.7 kmh ENE 3.5 mph5.6 kmh 30.12 in1020.0 mb - 0.43 in10.9 mm 0.47 in11.9 mm
06:40 PM 58.5°F14.7°C 55.8°F13.2°C 91% 2.3 mph NE3.7 kmh NE 3.5 mph5.6 kmh 30.12 in1020.0 mb - 0.38 in9.7 mm 0.47 in11.9 mm
06:45 PM 58.3°F14.6°C 56.0°F13.3°C 92% 2.3 mph W3.7 kmh W 3.5 mph5.6 kmh 30.12 in1020.0 mb - 0.31 in7.9 mm 0.47 in11.9 mm
06:50 PM 58.3°F14.6°C 56.3°F13.5°C 93% Calm Calm 1.2 mph1.9 kmh 30.12 in1020.0 mb - 0.30 in7.6 mm 0.47 in11.9 mm
06:55 PM 58.1°F14.5°C 56.4°F13.6°C 94% 2.3 mph ESE3.7 kmh ESE 3.5 mph5.6 kmh 30.12 in1020.0 mb - 0.30 in7.6 mm 0.47 in11.9 mm
07:00 PM 58.1°F14.5°C 56.4°F13.6°C 94% Calm Calm 1.2 mph1.9 kmh 30.12 in1020.0 mb - 0.28 in7.1 mm 0.47 in11.9 mm
07:10 PM 58.1°F14.5°C 56.4°F13.6°C 94% 1.2 mph E1.9 kmh E 1.2 mph1.9 kmh 30.12 in1020.0 mb - 0.27 in6.9 mm 0.47 in11.9 mm
07:15 PM 58.1°F14.5°C 56.7°F13.7°C 95% 1.2 mph NE1.9 kmh NE 2.3 mph3.7 kmh 30.12 in1020.0 mb - 0.25 in6.4 mm 0.47 in11.9 mm
07:20 PM 58.1°F14.5°C 56.7°F13.7°C 95% Calm Calm 1.2 mph1.9 kmh 30.12 in1020.0 mb - 0.12 in3.0 mm 0.47 in11.9 mm
07:25 PM 57.9°F14.4°C 56.5°F13.6°C 95% Calm Calm -- 30.12 in1020.0 mb - 0.06 in1.5 mm 0.47 in11.9 mm
07:30 PM 57.9°F14.4°C 56.5°F13.6°C 95% Calm Calm -- 30.12 in1020.0 mb - 0.04 in1.0 mm 0.47 in11.9 mm
07:35 PM 57.9°F14.4°C 56.8°F13.8°C 96% Calm Calm -- 30.12 in1020.0 mb - 0.00 in0.0 mm 0.47 in11.9 mm
07:40 PM 57.7°F14.3°C 56.6°F13.7°C 96% 1.2 mph SSE1.9 kmh SSE 2.3 mph3.7 kmh 30.12 in1020.0 mb - 0.00 in0.0 mm 0.47 in11.9 mm
07:45 PM 57.7°F14.3°C 56.6°F13.7°C 96% Calm Calm -- 30.12 in1020.0 mb - 0.00 in0.0 mm 0.47 in11.9 mm
07:50 PM 57.7°F14.3°C 56.6°F13.7°C 96% Calm Calm -- 30.12 in1020.0 mb - 0.00 in0.0 mm 0.47 in11.9 mm
07:55 PM 57.7°F14.3°C 56.6°F13.7°C 96% 1.2 mph W1.9 kmh W 3.5 mph5.6 kmh 30.12 in1020.0 mb - 0.00 in0.0 mm 0.47 in11.9 mm
08:00 PM 57.7°F14.3°C 56.9°F13.8°C 97% Calm Calm -- 30.12 in1020.0 mb - 0.00 in0.0 mm 0.47 in11.9 mm
08:10 PM 57.7°F14.3°C 56.9°F13.8°C 97% 1.2 mph NE1.9 kmh NE 2.3 mph3.7 kmh 30.12 in1020.0 mb - 0.00 in0.0 mm 0.47 in11.9 mm
08:15 PM 57.9°F14.4°C 57.1°F13.9°C 97% Calm Calm -- 30.12 in1020.0 mb - 0.00 in0.0 mm 0.47 in11.9 mm
08:20 PM 57.9°F14.4°C 57.1°F13.9°C 97% 3.5 mph NE5.6 kmh NE 3.5 mph5.6 kmh 30.12 in1020.0 mb - 0.00 in0.0 mm 0.47 in11.9 mm
08:25 PM 58.1°F14.5°C 57.3°F14.1°C 97% 1.2 mph E1.9 kmh E 2.3 mph3.7 kmh 30.12 in1020.0 mb - 0.00 in0.0 mm 0.47 in11.9 mm
08:30 PM 58.1°F14.5°C 57.5°F14.2°C 98% 1.2 mph W1.9 kmh W 2.3 mph3.7 kmh 30.12 in1020.0 mb - 0.00 in0.0 mm 0.47 in11.9 mm
08:35 PM 58.1°F14.5°C 57.5°F14.2°C 98% Calm Calm 1.2 mph1.9 kmh 30.12 in1020.0 mb - 0.00 in0.0 mm 0.47 in11.9 mm
08:40 PM 58.1°F14.5°C 57.5°F14.2°C 98% Calm Calm -- 30.12 in1020.0 mb - 0.00 in0.0 mm 0.47 in11.9 mm
08:45 PM 58.1°F14.5°C 57.5°F14.2°C 98% Calm Calm -- 30.12 in1020.0 mb - 0.00 in0.0 mm 0.47 in11.9 mm
08:50 PM 58.1°F14.5°C 57.5°F14.2°C 98% Calm Calm -- 30.12 in1020.0 mb - 0.00 in0.0 mm 0.47 in11.9 mm
08:55 PM 58.1°F14.5°C 57.5°F14.2°C 98% Calm Calm -- 30.12 in1020.0 mb - 0.00 in0.0 mm 0.47 in11.9 mm
09:00 PM 58.1°F14.5°C 57.5°F14.2°C 98% Calm Calm -- 30.12 in1020.0 mb - 0.00 in0.0 mm 0.47 in11.9 mm
09:10 PM 58.1°F14.5°C 57.8°F14.3°C 99% Calm Calm -- 30.15 in1021.0 mb - 0.00 in0.0 mm 0.47 in11.9 mm
09:15 PM 58.1°F14.5°C 57.8°F14.3°C 99% Calm Calm -- 30.15 in1021.0 mb - 0.00 in0.0 mm 0.47 in11.9 mm
09:20 PM 57.9°F14.4°C 57.6°F14.2°C 99% Calm Calm -- 30.15 in1021.0 mb - 0.00 in0.0 mm 0.47 in11.9 mm
09:25 PM 57.9°F14.4°C 57.6°F14.2°C 99% Calm Calm -- 30.15 in1021.0 mb - 0.00 in0.0 mm 0.47 in11.9 mm
09:30 PM 57.7°F14.3°C 57.5°F14.2°C 99% Calm Calm -- 30.15 in1021.0 mb - 0.00 in0.0 mm 0.47 in11.9 mm
09:35 PM 57.9°F14.4°C 57.6°F14.2°C 99% 5.8 mph NW9.3 kmh NW 8.1 mph13.0 kmh 30.15 in1021.0 mb - 0.00 in0.0 mm 0.47 in11.9 mm
09:40 PM 57.9°F14.4°C 57.6°F14.2°C 99% 1.2 mph W1.9 kmh W 3.5 mph5.6 kmh 30.15 in1021.0 mb - 0.00 in0.0 mm 0.47 in11.9 mm
09:45 PM 57.9°F14.4°C 57.6°F14.2°C 99% 2.3 mph E3.7 kmh E 4.6 mph7.4 kmh 30.15 in1021.0 mb - 0.01 in0.3 mm 0.48 in12.2 mm
09:50 PM 57.9°F14.4°C 57.6°F14.2°C 99% 2.3 mph N3.7 kmh N 3.5 mph5.6 kmh 30.15 in1021.0 mb - 0.01 in0.3 mm 0.48 in12.2 mm
09:55 PM 57.9°F14.4°C 57.6°F14.2°C 99% Calm Calm 2.3 mph3.7 kmh 30.15 in1021.0 mb - 0.01 in0.3 mm 0.48 in12.2 mm
10:00 PM 57.9°F14.4°C 57.6°F14.2°C 99% Calm Calm -- 30.15 in1021.0 mb - 0.01 in0.3 mm 0.48 in12.2 mm
10:10 PM 57.9°F14.4°C 57.6°F14.2°C 99% 2.3 mph S3.7 kmh S 5.8 mph9.3 kmh 30.15 in1021.0 mb - 0.01 in0.3 mm 0.48 in12.2 mm
10:15 PM 57.9°F14.4°C 57.6°F14.2°C 99% Calm Calm -- 30.15 in1021.0 mb - 0.01 in0.3 mm 0.48 in12.2 mm
10:20 PM 57.7°F14.3°C 57.5°F14.2°C 99% Calm Calm -- 30.15 in1021.0 mb - 0.01 in0.3 mm 0.48 in12.2 mm
10:25 PM 57.7°F14.3°C 57.5°F14.2°C 99% Calm Calm -- 30.15 in1021.0 mb - 0.01 in0.3 mm 0.48 in12.2 mm
10:30 PM 57.6°F14.2°C 57.3°F14.1°C 99% Calm Calm -- 30.15 in1021.0 mb - 0.01 in0.3 mm 0.48 in12.2 mm
10:35 PM 57.6°F14.2°C 57.3°F14.1°C 99% Calm Calm -- 30.15 in1021.0 mb - 0.01 in0.3 mm 0.48 in12.2 mm
10:40 PM 57.6°F14.2°C 57.3°F14.1°C 99% 2.3 mph NE3.7 kmh NE 3.5 mph5.6 kmh 30.15 in1021.0 mb - 0.01 in0.3 mm 0.48 in12.2 mm
10:45 PM 57.6°F14.2°C 57.3°F14.1°C 99% Calm Calm -- 30.15 in1021.0 mb - 0.00 in0.0 mm 0.48 in12.2 mm
10:50 PM 57.2°F14.0°C 56.9°F13.8°C 99% Calm Calm 1.2 mph1.9 kmh 30.15 in1021.0 mb - 0.00 in0.0 mm 0.48 in12.2 mm
10:55 PM 56.8°F13.8°C 56.6°F13.7°C 99% Calm Calm 1.2 mph1.9 kmh 30.15 in1021.0 mb - 0.00 in0.0 mm 0.48 in12.2 mm
11:00 PM 56.7°F13.7°C 56.4°F13.6°C 99% Calm Calm -- 30.15 in1021.0 mb - 0.00 in0.0 mm 5.42 in137.7 mm
11:10 PM 56.7°F13.7°C 56.4°F13.6°C 99% Calm Calm -- 30.15 in1021.0 mb - 0.00 in0.0 mm 5.42 in137.7 mm
11:15 PM 56.3°F13.5°C 56.0°F13.3°C 99% Calm Calm -- 30.15 in1021.0 mb - 0.00 in0.0 mm 5.42 in137.7 mm
11:20 PM 55.9°F13.3°C 55.7°F13.2°C 99% Calm Calm 1.2 mph1.9 kmh 30.15 in1021.0 mb - 0.00 in0.0 mm 5.42 in137.7 mm
11:25 PM 55.8°F13.2°C 55.5°F13.1°C 99% 1.2 mph W1.9 kmh W 2.3 mph3.7 kmh 30.15 in1021.0 mb - 0.00 in0.0 mm 5.42 in137.7 mm
11:30 PM 55.8°F13.2°C 55.5°F13.1°C 99% 1.2 mph SW1.9 kmh SW 3.5 mph5.6 kmh 30.15 in1021.0 mb - 0.00 in0.0 mm 5.42 in137.7 mm
11:35 PM 55.8°F13.2°C 55.5°F13.1°C 99% Calm Calm 1.2 mph1.9 kmh 30.15 in1021.0 mb - 0.00 in0.0 mm 5.42 in137.7 mm
11:40 PM 55.6°F13.1°C 55.3°F12.9°C 99% Calm Calm 1.2 mph1.9 kmh 30.15 in1021.0 mb - 0.00 in0.0 mm 5.42 in137.7 mm
11:45 PM 55.6°F13.1°C 55.3°F12.9°C 99% Calm Calm -- 30.15 in1021.0 mb - 0.00 in0.0 mm 5.42 in137.7 mm
11:50 PM 55.4°F13.0°C 55.1°F12.8°C 99% Calm Calm -- 30.15 in1021.0 mb - 0.00 in0.0 mm 5.42 in137.7 mm
11:55 PM 55.4°F13.0°C 55.1°F12.8°C 99% 3.5 mph W5.6 kmh W 4.6 mph7.4 kmh 30.15 in1021.0 mb - 0.00 in0.0 mm 5.42 in137.7 mm